sensor_id;sensor_type;location;lat;lon;timestamp;P1;durP1;ratioP1;P2;durP2;ratioP2
2624;SDS011;1322;53.256;10.386;2023-12-14T00:00:27;7.67;;;3.57;;
2624;SDS011;1322;53.256;10.386;2023-12-14T00:02:52;5.63;;;3.23;;
2624;SDS011;1322;53.256;10.386;2023-12-14T00:05:18;10.40;;;3.70;;
2624;SDS011;1322;53.256;10.386;2023-12-14T00:07:43;5.90;;;3.60;;
2624;SDS011;1322;53.256;10.386;2023-12-14T00:10:09;16.53;;;3.93;;
2624;SDS011;1322;53.256;10.386;2023-12-14T00:12:35;5.70;;;3.73;;
2624;SDS011;1322;53.256;10.386;2023-12-14T00:15:00;4.83;;;3.03;;
2624;SDS011;1322;53.256;10.386;2023-12-14T00:17:26;6.20;;;4.40;;
2624;SDS011;1322;53.256;10.386;2023-12-14T00:19:52;5.43;;;3.90;;
2624;SDS011;1322;53.256;10.386;2023-12-14T00:22:17;4.73;;;3.40;;
2624;SDS011;1322;53.256;10.386;2023-12-14T00:24:43;5.20;;;3.70;;
2624;SDS011;1322;53.256;10.386;2023-12-14T00:27:08;5.27;;;3.37;;
2624;SDS011;1322;53.256;10.386;2023-12-14T00:29:34;8.63;;;4.63;;
2624;SDS011;1322;53.256;10.386;2023-12-14T00:31:59;4.83;;;3.30;;
2624;SDS011;1322;53.256;10.386;2023-12-14T00:34:25;5.67;;;3.53;;
2624;SDS011;1322;53.256;10.386;2023-12-14T00:36:50;4.80;;;3.10;;
2624;SDS011;1322;53.256;10.386;2023-12-14T00:39:16;10.90;;;3.20;;
2624;SDS011;1322;53.256;10.386;2023-12-14T00:41:42;6.77;;;3.37;;
2624;SDS011;1322;53.256;10.386;2023-12-14T00:44:07;5.50;;;3.40;;
2624;SDS011;1322;53.256;10.386;2023-12-14T00:46:33;4.43;;;2.90;;
2624;SDS011;1322;53.256;10.386;2023-12-14T00:48:58;5.10;;;2.70;;
2624;SDS011;1322;53.256;10.386;2023-12-14T00:51:24;5.10;;;3.03;;
2624;SDS011;1322;53.256;10.386;2023-12-14T00:53:50;5.60;;;3.33;;
2624;SDS011;1322;53.256;10.386;2023-12-14T00:56:15;3.60;;;2.47;;
2624;SDS011;1322;53.256;10.386;2023-12-14T00:58:41;5.93;;;3.13;;
2624;SDS011;1322;53.256;10.386;2023-12-14T01:01:06;5.90;;;3.10;;
2624;SDS011;1322;53.256;10.386;2023-12-14T01:03:32;5.30;;;3.50;;
2624;SDS011;1322;53.256;10.386;2023-12-14T01:05:58;6.17;;;3.57;;
2624;SDS011;1322;53.256;10.386;2023-12-14T01:08:23;7.47;;;3.20;;
2624;SDS011;1322;53.256;10.386;2023-12-14T01:10:49;4.93;;;3.27;;
2624;SDS011;1322;53.256;10.386;2023-12-14T01:13:15;5.10;;;3.33;;
2624;SDS011;1322;53.256;10.386;2023-12-14T01:15:40;6.00;;;3.17;;
2624;SDS011;1322;53.256;10.386;2023-12-14T01:18:06;3.30;;;2.73;;
2624;SDS011;1322;53.256;10.386;2023-12-14T01:20:31;3.47;;;2.57;;
2624;SDS011;1322;53.256;10.386;2023-12-14T01:22:57;5.47;;;3.10;;
2624;SDS011;1322;53.256;10.386;2023-12-14T01:25:23;6.80;;;3.60;;
2624;SDS011;1322;53.256;10.386;2023-12-14T01:27:48;2.83;;;2.37;;
2624;SDS011;1322;53.256;10.386;2023-12-14T01:30:14;4.33;;;3.20;;
2624;SDS011;1322;53.256;10.386;2023-12-14T01:32:39;4.93;;;3.00;;
2624;SDS011;1322;53.256;10.386;2023-12-14T01:35:05;4.70;;;2.90;;
2624;SDS011;1322;53.256;10.386;2023-12-14T01:37:31;4.60;;;3.00;;
2624;SDS011;1322;53.256;10.386;2023-12-14T01:39:56;8.20;;;3.40;;
2624;SDS011;1322;53.256;10.386;2023-12-14T01:42:22;4.00;;;2.63;;
2624;SDS011;1322;53.256;10.386;2023-12-14T01:44:47;6.63;;;3.53;;
2624;SDS011;1322;53.256;10.386;2023-12-14T01:47:13;9.53;;;3.30;;
2624;SDS011;1322;53.256;10.386;2023-12-14T01:49:39;4.47;;;2.97;;
2624;SDS011;1322;53.256;10.386;2023-12-14T01:52:06;4.90;;;3.50;;
2624;SDS011;1322;53.256;10.386;2023-12-14T01:54:32;5.83;;;3.33;;
2624;SDS011;1322;53.256;10.386;2023-12-14T01:56:58;5.77;;;3.20;;
2624;SDS011;1322;53.256;10.386;2023-12-14T01:59:24;4.67;;;2.90;;
2624;SDS011;1322;53.256;10.386;2023-12-14T02:01:52;6.77;;;3.70;;
2624;SDS011;1322;53.256;10.386;2023-12-14T02:04:22;6.30;;;2.93;;
2624;SDS011;1322;53.256;10.386;2023-12-14T02:06:48;5.40;;;2.70;;
2624;SDS011;1322;53.256;10.386;2023-12-14T02:09:14;6.30;;;3.10;;
2624;SDS011;1322;53.256;10.386;2023-12-14T02:11:40;5.43;;;3.40;;
2624;SDS011;1322;53.256;10.386;2023-12-14T02:14:06;3.80;;;2.90;;
2624;SDS011;1322;53.256;10.386;2023-12-14T02:16:34;3.77;;;2.70;;
2624;SDS011;1322;53.256;10.386;2023-12-14T02:18:59;5.20;;;3.60;;
2624;SDS011;1322;53.256;10.386;2023-12-14T02:21:25;3.47;;;2.43;;
2624;SDS011;1322;53.256;10.386;2023-12-14T02:23:54;4.13;;;3.00;;
2624;SDS011;1322;53.256;10.386;2023-12-14T02:26:19;4.73;;;2.93;;
2624;SDS011;1322;53.256;10.386;2023-12-14T02:28:45;5.60;;;3.20;;
2624;SDS011;1322;53.256;10.386;2023-12-14T02:31:10;5.83;;;3.00;;
2624;SDS011;1322;53.256;10.386;2023-12-14T02:33:36;4.90;;;2.40;;
2624;SDS011;1322;53.256;10.386;2023-12-14T02:36:02;5.77;;;3.40;;
2624;SDS011;1322;53.256;10.386;2023-12-14T02:38:28;3.50;;;2.63;;
2624;SDS011;1322;53.256;10.386;2023-12-14T02:40:54;3.67;;;2.90;;
2624;SDS011;1322;53.256;10.386;2023-12-14T02:43:20;7.40;;;3.20;;
2624;SDS011;1322;53.256;10.386;2023-12-14T02:45:45;4.63;;;3.03;;
2624;SDS011;1322;53.256;10.386;2023-12-14T02:48:11;4.90;;;2.30;;
2624;SDS011;1322;53.256;10.386;2023-12-14T02:50:37;5.83;;;3.00;;
2624;SDS011;1322;53.256;10.386;2023-12-14T02:53:03;3.90;;;2.80;;
2624;SDS011;1322;53.256;10.386;2023-12-14T02:55:29;3.70;;;2.03;;
2624;SDS011;1322;53.256;10.386;2023-12-14T02:57:54;4.10;;;3.00;;
2624;SDS011;1322;53.256;10.386;2023-12-14T03:00:21;5.40;;;3.30;;
2624;SDS011;1322;53.256;10.386;2023-12-14T03:02:47;4.80;;;3.00;;
2624;SDS011;1322;53.256;10.386;2023-12-14T03:05:13;3.97;;;2.40;;
2624;SDS011;1322;53.256;10.386;2023-12-14T03:07:39;3.50;;;2.50;;
2624;SDS011;1322;53.256;10.386;2023-12-14T03:10:05;4.50;;;3.53;;
2624;SDS011;1322;53.256;10.386;2023-12-14T03:12:32;3.47;;;2.50;;
2624;SDS011;1322;53.256;10.386;2023-12-14T03:14:57;4.37;;;2.37;;
2624;SDS011;1322;53.256;10.386;2023-12-14T03:17:23;4.33;;;2.43;;
2624;SDS011;1322;53.256;10.386;2023-12-14T03:19:48;4.00;;;2.30;;
2624;SDS011;1322;53.256;10.386;2023-12-14T03:22:14;3.00;;;2.20;;
2624;SDS011;1322;53.256;10.386;2023-12-14T03:24:39;3.77;;;1.90;;
2624;SDS011;1322;53.256;10.386;2023-12-14T03:27:05;3.50;;;2.27;;
2624;SDS011;1322;53.256;10.386;2023-12-14T03:29:31;3.87;;;2.10;;
2624;SDS011;1322;53.256;10.386;2023-12-14T03:31:56;3.10;;;1.93;;
2624;SDS011;1322;53.256;10.386;2023-12-14T03:34:22;2.03;;;1.50;;
2624;SDS011;1322;53.256;10.386;2023-12-14T03:36:49;3.60;;;2.67;;
2624;SDS011;1322;53.256;10.386;2023-12-14T03:39:14;2.53;;;1.50;;
2624;SDS011;1322;53.256;10.386;2023-12-14T03:41:41;2.60;;;2.03;;
2624;SDS011;1322;53.256;10.386;2023-12-14T03:44:07;2.63;;;1.43;;
2624;SDS011;1322;53.256;10.386;2023-12-14T03:46:33;3.50;;;1.83;;
2624;SDS011;1322;53.256;10.386;2023-12-14T03:48:59;2.33;;;1.87;;
2624;SDS011;1322;53.256;10.386;2023-12-14T03:51:25;3.13;;;1.90;;
2624;SDS011;1322;53.256;10.386;2023-12-14T03:53:50;3.93;;;1.70;;
2624;SDS011;1322;53.256;10.386;2023-12-14T03:56:16;2.70;;;2.17;;
2624;SDS011;1322;53.256;10.386;2023-12-14T03:58:42;3.20;;;1.90;;
2624;SDS011;1322;53.256;10.386;2023-12-14T04:01:07;3.23;;;2.20;;
2624;SDS011;1322;53.256;10.386;2023-12-14T04:03:33;3.47;;;2.00;;
2624;SDS011;1322;53.256;10.386;2023-12-14T04:05:58;3.13;;;2.00;;
2624;SDS011;1322;53.256;10.386;2023-12-14T04:08:24;4.93;;;1.90;;
2624;SDS011;1322;53.256;10.386;2023-12-14T04:10:50;2.30;;;1.70;;
2624;SDS011;1322;53.256;10.386;2023-12-14T04:13:15;4.60;;;2.33;;
2624;SDS011;1322;53.256;10.386;2023-12-14T04:15:41;3.67;;;2.13;;
2624;SDS011;1322;53.256;10.386;2023-12-14T04:18:07;4.20;;;2.10;;
2624;SDS011;1322;53.256;10.386;2023-12-14T04:20:33;3.23;;;2.30;;
2624;SDS011;1322;53.256;10.386;2023-12-14T04:22:59;3.77;;;2.23;;
2624;SDS011;1322;53.256;10.386;2023-12-14T04:25:24;3.50;;;2.43;;
2624;SDS011;1322;53.256;10.386;2023-12-14T04:27:50;2.50;;;1.97;;
2624;SDS011;1322;53.256;10.386;2023-12-14T04:30:16;5.90;;;2.23;;
2624;SDS011;1322;53.256;10.386;2023-12-14T04:32:41;2.50;;;2.17;;
2624;SDS011;1322;53.256;10.386;2023-12-14T04:35:07;3.43;;;2.37;;
2624;SDS011;1322;53.256;10.386;2023-12-14T04:37:33;2.97;;;2.13;;
2624;SDS011;1322;53.256;10.386;2023-12-14T04:39:59;4.70;;;2.60;;
2624;SDS011;1322;53.256;10.386;2023-12-14T04:42:24;5.27;;;2.10;;
2624;SDS011;1322;53.256;10.386;2023-12-14T04:44:50;2.60;;;2.40;;
2624;SDS011;1322;53.256;10.386;2023-12-14T04:47:16;3.70;;;2.20;;
2624;SDS011;1322;53.256;10.386;2023-12-14T04:49:41;6.10;;;2.07;;
2624;SDS011;1322;53.256;10.386;2023-12-14T04:52:07;2.60;;;1.93;;
2624;SDS011;1322;53.256;10.386;2023-12-14T04:54:33;3.13;;;2.17;;
2624;SDS011;1322;53.256;10.386;2023-12-14T04:57:02;2.47;;;2.10;;
2624;SDS011;1322;53.256;10.386;2023-12-14T04:59:28;3.80;;;2.00;;
2624;SDS011;1322;53.256;10.386;2023-12-14T05:01:54;5.30;;;2.40;;
2624;SDS011;1322;53.256;10.386;2023-12-14T05:04:19;4.77;;;2.53;;
2624;SDS011;1322;53.256;10.386;2023-12-14T05:06:45;5.23;;;3.17;;
2624;SDS011;1322;53.256;10.386;2023-12-14T05:09:11;4.50;;;2.50;;
2624;SDS011;1322;53.256;10.386;2023-12-14T05:11:37;4.93;;;2.53;;
2624;SDS011;1322;53.256;10.386;2023-12-14T05:14:05;3.83;;;2.80;;
2624;SDS011;1322;53.256;10.386;2023-12-14T05:16:30;5.43;;;2.47;;
2624;SDS011;1322;53.256;10.386;2023-12-14T05:18:56;3.47;;;2.50;;
2624;SDS011;1322;53.256;10.386;2023-12-14T05:21:24;5.70;;;3.03;;
2624;SDS011;1322;53.256;10.386;2023-12-14T05:23:50;3.60;;;2.60;;
2624;SDS011;1322;53.256;10.386;2023-12-14T05:26:15;3.27;;;2.30;;
2624;SDS011;1322;53.256;10.386;2023-12-14T05:28:42;4.20;;;2.60;;
2624;SDS011;1322;53.256;10.386;2023-12-14T05:31:08;4.67;;;3.10;;
2624;SDS011;1322;53.256;10.386;2023-12-14T05:33:37;4.10;;;3.20;;
2624;SDS011;1322;53.256;10.386;2023-12-14T05:36:03;8.10;;;3.50;;
2624;SDS011;1322;53.256;10.386;2023-12-14T05:38:33;5.67;;;3.90;;
2624;SDS011;1322;53.256;10.386;2023-12-14T05:40:59;5.07;;;3.50;;
2624;SDS011;1322;53.256;10.386;2023-12-14T05:43:25;4.37;;;2.57;;
2624;SDS011;1322;53.256;10.386;2023-12-14T05:45:50;5.30;;;3.80;;
2624;SDS011;1322;53.256;10.386;2023-12-14T05:48:16;6.50;;;3.13;;
2624;SDS011;1322;53.256;10.386;2023-12-14T05:50:42;5.50;;;3.40;;
2624;SDS011;1322;53.256;10.386;2023-12-14T05:53:07;4.07;;;2.80;;
2624;SDS011;1322;53.256;10.386;2023-12-14T05:55:33;4.93;;;3.30;;
2624;SDS011;1322;53.256;10.386;2023-12-14T05:57:58;5.97;;;4.00;;
2624;SDS011;1322;53.256;10.386;2023-12-14T06:00:24;5.00;;;3.60;;
2624;SDS011;1322;53.256;10.386;2023-12-14T06:02:49;5.10;;;3.10;;
2624;SDS011;1322;53.256;10.386;2023-12-14T06:05:15;5.80;;;3.33;;
2624;SDS011;1322;53.256;10.386;2023-12-14T06:07:41;7.60;;;3.67;;
2624;SDS011;1322;53.256;10.386;2023-12-14T06:10:06;5.40;;;3.43;;
2624;SDS011;1322;53.256;10.386;2023-12-14T06:12:32;7.20;;;4.07;;
2624;SDS011;1322;53.256;10.386;2023-12-14T06:14:58;6.13;;;3.23;;
2624;SDS011;1322;53.256;10.386;2023-12-14T06:17:23;11.07;;;5.23;;
2624;SDS011;1322;53.256;10.386;2023-12-14T06:19:49;6.53;;;4.27;;
2624;SDS011;1322;53.256;10.386;2023-12-14T06:22:15;6.50;;;4.23;;
2624;SDS011;1322;53.256;10.386;2023-12-14T06:24:40;6.60;;;4.20;;
2624;SDS011;1322;53.256;10.386;2023-12-14T06:27:06;8.30;;;4.60;;
2624;SDS011;1322;53.256;10.386;2023-12-14T06:29:32;7.17;;;4.67;;
2624;SDS011;1322;53.256;10.386;2023-12-14T06:31:57;8.00;;;4.27;;
2624;SDS011;1322;53.256;10.386;2023-12-14T06:34:23;7.80;;;4.53;;
2624;SDS011;1322;53.256;10.386;2023-12-14T06:36:48;8.60;;;3.90;;
2624;SDS011;1322;53.256;10.386;2023-12-14T06:39:14;6.50;;;4.23;;
2624;SDS011;1322;53.256;10.386;2023-12-14T06:41:40;8.17;;;4.50;;
2624;SDS011;1322;53.256;10.386;2023-12-14T06:44:06;13.33;;;4.50;;
2624;SDS011;1322;53.256;10.386;2023-12-14T06:46:34;7.07;;;5.07;;
2624;SDS011;1322;53.256;10.386;2023-12-14T06:48:59;9.90;;;5.30;;
2624;SDS011;1322;53.256;10.386;2023-12-14T06:51:25;5.47;;;4.10;;
2624;SDS011;1322;53.256;10.386;2023-12-14T06:53:51;9.53;;;5.20;;
2624;SDS011;1322;53.256;10.386;2023-12-14T06:56:16;6.47;;;4.60;;
2624;SDS011;1322;53.256;10.386;2023-12-14T06:58:42;6.53;;;4.10;;
2624;SDS011;1322;53.256;10.386;2023-12-14T07:01:15;7.80;;;4.30;;
2624;SDS011;1322;53.256;10.386;2023-12-14T07:03:42;6.90;;;4.60;;
2624;SDS011;1322;53.256;10.386;2023-12-14T07:06:15;8.90;;;4.20;;
2624;SDS011;1322;53.256;10.386;2023-12-14T07:08:42;8.70;;;4.70;;
2624;SDS011;1322;53.256;10.386;2023-12-14T07:11:08;5.70;;;4.20;;
2624;SDS011;1322;53.256;10.386;2023-12-14T07:13:34;6.07;;;4.00;;
2624;SDS011;1322;53.256;10.386;2023-12-14T07:16:06;7.80;;;4.77;;
2624;SDS011;1322;53.256;10.386;2023-12-14T07:18:33;10.33;;;4.50;;
2624;SDS011;1322;53.256;10.386;2023-12-14T07:21:03;6.07;;;4.23;;
2624;SDS011;1322;53.256;10.386;2023-12-14T07:23:31;6.23;;;4.10;;
2624;SDS011;1322;53.256;10.386;2023-12-14T07:25:56;9.10;;;6.07;;
2624;SDS011;1322;53.256;10.386;2023-12-14T07:28:22;10.63;;;4.27;;
2624;SDS011;1322;53.256;10.386;2023-12-14T07:30:48;7.20;;;3.97;;
2624;SDS011;1322;53.256;10.386;2023-12-14T07:33:14;8.50;;;3.87;;
2624;SDS011;1322;53.256;10.386;2023-12-14T07:35:41;5.87;;;3.80;;
2624;SDS011;1322;53.256;10.386;2023-12-14T07:38:09;6.57;;;4.13;;
2624;SDS011;1322;53.256;10.386;2023-12-14T07:40:35;7.90;;;5.17;;
2624;SDS011;1322;53.256;10.386;2023-12-14T07:43:00;6.70;;;4.23;;
2624;SDS011;1322;53.256;10.386;2023-12-14T07:45:26;4.97;;;4.47;;
2624;SDS011;1322;53.256;10.386;2023-12-14T07:47:52;8.23;;;5.00;;
2624;SDS011;1322;53.256;10.386;2023-12-14T07:50:18;7.67;;;5.07;;
2624;SDS011;1322;53.256;10.386;2023-12-14T07:52:44;8.03;;;4.43;;
2624;SDS011;1322;53.256;10.386;2023-12-14T07:55:10;4.70;;;3.53;;
2624;SDS011;1322;53.256;10.386;2023-12-14T07:57:35;7.20;;;5.07;;
2624;SDS011;1322;53.256;10.386;2023-12-14T08:00:01;8.10;;;4.67;;
2624;SDS011;1322;53.256;10.386;2023-12-14T08:02:29;7.50;;;4.43;;
2624;SDS011;1322;53.256;10.386;2023-12-14T08:04:54;10.60;;;5.17;;
2624;SDS011;1322;53.256;10.386;2023-12-14T08:07:20;9.60;;;4.97;;
2624;SDS011;1322;53.256;10.386;2023-12-14T08:09:45;7.83;;;4.60;;
2624;SDS011;1322;53.256;10.386;2023-12-14T08:12:11;12.77;;;7.70;;
2624;SDS011;1322;53.256;10.386;2023-12-14T08:14:36;8.73;;;5.20;;
2624;SDS011;1322;53.256;10.386;2023-12-14T08:17:03;8.33;;;4.27;;
2624;SDS011;1322;53.256;10.386;2023-12-14T08:19:29;7.23;;;5.50;;
2624;SDS011;1322;53.256;10.386;2023-12-14T08:21:55;9.50;;;5.07;;
2624;SDS011;1322;53.256;10.386;2023-12-14T08:24:21;7.63;;;5.30;;
2624;SDS011;1322;53.256;10.386;2023-12-14T08:26:46;8.63;;;4.50;;
2624;SDS011;1322;53.256;10.386;2023-12-14T08:29:12;10.60;;;5.57;;
2624;SDS011;1322;53.256;10.386;2023-12-14T08:31:37;6.97;;;5.40;;
2624;SDS011;1322;53.256;10.386;2023-12-14T08:34:03;8.27;;;5.00;;
2624;SDS011;1322;53.256;10.386;2023-12-14T08:36:29;9.70;;;5.43;;
2624;SDS011;1322;53.256;10.386;2023-12-14T08:38:56;6.40;;;4.60;;
2624;SDS011;1322;53.256;10.386;2023-12-14T08:41:22;7.87;;;5.63;;
2624;SDS011;1322;53.256;10.386;2023-12-14T08:43:47;6.10;;;3.80;;
2624;SDS011;1322;53.256;10.386;2023-12-14T08:46:13;5.37;;;3.70;;
2624;SDS011;1322;53.256;10.386;2023-12-14T08:48:39;9.10;;;4.87;;
2624;SDS011;1322;53.256;10.386;2023-12-14T08:51:04;8.37;;;5.20;;
2624;SDS011;1322;53.256;10.386;2023-12-14T08:53:30;13.67;;;4.50;;
2624;SDS011;1322;53.256;10.386;2023-12-14T08:55:56;11.10;;;4.77;;
2624;SDS011;1322;53.256;10.386;2023-12-14T08:58:22;7.20;;;4.57;;
2624;SDS011;1322;53.256;10.386;2023-12-14T09:00:47;8.07;;;5.00;;
2624;SDS011;1322;53.256;10.386;2023-12-14T09:03:18;9.00;;;5.20;;
2624;SDS011;1322;53.256;10.386;2023-12-14T09:05:44;8.60;;;4.70;;
2624;SDS011;1322;53.256;10.386;2023-12-14T09:08:10;6.57;;;4.20;;
2624;SDS011;1322;53.256;10.386;2023-12-14T09:10:36;7.07;;;4.77;;
2624;SDS011;1322;53.256;10.386;2023-12-14T09:13:03;6.80;;;5.27;;
2624;SDS011;1322;53.256;10.386;2023-12-14T09:15:30;9.93;;;5.40;;
2624;SDS011;1322;53.256;10.386;2023-12-14T09:17:56;10.53;;;4.80;;
2624;SDS011;1322;53.256;10.386;2023-12-14T09:20:22;9.10;;;5.20;;
2624;SDS011;1322;53.256;10.386;2023-12-14T09:22:48;10.27;;;6.13;;
2624;SDS011;1322;53.256;10.386;2023-12-14T09:25:13;9.00;;;5.53;;
2624;SDS011;1322;53.256;10.386;2023-12-14T09:27:40;6.83;;;4.80;;
2624;SDS011;1322;53.256;10.386;2023-12-14T09:30:06;9.20;;;5.80;;
2624;SDS011;1322;53.256;10.386;2023-12-14T09:32:32;9.87;;;5.30;;
2624;SDS011;1322;53.256;10.386;2023-12-14T09:34:58;7.70;;;5.30;;
2624;SDS011;1322;53.256;10.386;2023-12-14T09:37:24;9.10;;;5.37;;
2624;SDS011;1322;53.256;10.386;2023-12-14T09:39:50;6.50;;;4.40;;
2624;SDS011;1322;53.256;10.386;2023-12-14T09:42:16;7.50;;;5.63;;
2624;SDS011;1322;53.256;10.386;2023-12-14T09:44:50;6.13;;;5.10;;
2624;SDS011;1322;53.256;10.386;2023-12-14T09:47:17;9.20;;;5.43;;
2624;SDS011;1322;53.256;10.386;2023-12-14T09:49:43;10.03;;;5.37;;
2624;SDS011;1322;53.256;10.386;2023-12-14T09:52:10;10.23;;;5.47;;
2624;SDS011;1322;53.256;10.386;2023-12-14T09:54:36;10.33;;;4.73;;
2624;SDS011;1322;53.256;10.386;2023-12-14T09:57:02;8.80;;;5.53;;
2624;SDS011;1322;53.256;10.386;2023-12-14T09:59:28;10.23;;;5.57;;
2624;SDS011;1322;53.256;10.386;2023-12-14T10:02:01;10.50;;;5.00;;
2624;SDS011;1322;53.256;10.386;2023-12-14T10:04:37;8.60;;;5.40;;
2624;SDS011;1322;53.256;10.386;2023-12-14T10:07:03;10.20;;;5.60;;
2624;SDS011;1322;53.256;10.386;2023-12-14T10:09:35;12.53;;;7.03;;
2624;SDS011;1322;53.256;10.386;2023-12-14T10:12:06;10.97;;;6.33;;
2624;SDS011;1322;53.256;10.386;2023-12-14T10:14:33;11.07;;;5.73;;
2624;SDS011;1322;53.256;10.386;2023-12-14T10:17:13;13.73;;;6.43;;
2624;SDS011;1322;53.256;10.386;2023-12-14T10:19:56;10.07;;;5.77;;
2624;SDS011;1322;53.256;10.386;2023-12-14T10:22:22;7.43;;;5.90;;
2624;SDS011;1322;53.256;10.386;2023-12-14T10:24:47;10.27;;;5.57;;
2624;SDS011;1322;53.256;10.386;2023-12-14T10:27:16;10.90;;;6.33;;
2624;SDS011;1322;53.256;10.386;2023-12-14T10:29:42;7.57;;;5.23;;
2624;SDS011;1322;53.256;10.386;2023-12-14T10:32:10;7.23;;;5.40;;
2624;SDS011;1322;53.256;10.386;2023-12-14T10:34:36;9.43;;;5.50;;
2624;SDS011;1322;53.256;10.386;2023-12-14T10:37:04;7.70;;;5.33;;
2624;SDS011;1322;53.256;10.386;2023-12-14T10:39:31;10.37;;;6.77;;
2624;SDS011;1322;53.256;10.386;2023-12-14T10:41:58;8.27;;;5.10;;
2624;SDS011;1322;53.256;10.386;2023-12-14T10:44:27;9.63;;;5.60;;
2624;SDS011;1322;53.256;10.386;2023-12-14T10:46:57;7.10;;;5.47;;
2624;SDS011;1322;53.256;10.386;2023-12-14T10:49:24;9.63;;;6.10;;
2624;SDS011;1322;53.256;10.386;2023-12-14T10:51:54;5.60;;;4.57;;
2624;SDS011;1322;53.256;10.386;2023-12-14T10:54:23;8.20;;;5.60;;
2624;SDS011;1322;53.256;10.386;2023-12-14T10:56:50;6.67;;;5.40;;
2624;SDS011;1322;53.256;10.386;2023-12-14T10:59:20;8.67;;;5.67;;
2624;SDS011;1322;53.256;10.386;2023-12-14T11:01:50;9.13;;;5.50;;
2624;SDS011;1322;53.256;10.386;2023-12-14T11:04:18;7.90;;;5.07;;
2624;SDS011;1322;53.256;10.386;2023-12-14T11:06:46;6.77;;;5.07;;
2624;SDS011;1322;53.256;10.386;2023-12-14T11:09:13;9.40;;;5.23;;
2624;SDS011;1322;53.256;10.386;2023-12-14T11:14:22;5.30;;;4.03;;
2624;SDS011;1322;53.256;10.386;2023-12-14T11:16:49;10.57;;;5.10;;
2624;SDS011;1322;53.256;10.386;2023-12-14T11:24:21;6.73;;;4.50;;
2624;SDS011;1322;53.256;10.386;2023-12-14T11:26:50;6.70;;;4.20;;
2624;SDS011;1322;53.256;10.386;2023-12-14T11:29:19;7.40;;;4.80;;
2624;SDS011;1322;53.256;10.386;2023-12-14T11:31:46;6.07;;;4.23;;
2624;SDS011;1322;53.256;10.386;2023-12-14T11:34:13;6.40;;;4.30;;
2624;SDS011;1322;53.256;10.386;2023-12-14T11:36:40;6.37;;;3.90;;
2624;SDS011;1322;53.256;10.386;2023-12-14T11:39:09;10.70;;;4.70;;
2624;SDS011;1322;53.256;10.386;2023-12-14T11:41:36;7.77;;;4.53;;
2624;SDS011;1322;53.256;10.386;2023-12-14T11:44:03;4.73;;;4.10;;
2624;SDS011;1322;53.256;10.386;2023-12-14T11:46:29;6.60;;;4.80;;
2624;SDS011;1322;53.256;10.386;2023-12-14T11:48:59;4.80;;;4.20;;
2624;SDS011;1322;53.256;10.386;2023-12-14T11:51:28;5.90;;;4.13;;
2624;SDS011;1322;53.256;10.386;2023-12-14T11:53:55;5.63;;;3.80;;
2624;SDS011;1322;53.256;10.386;2023-12-14T11:56:20;4.60;;;3.50;;
2624;SDS011;1322;53.256;10.386;2023-12-14T11:58:48;6.33;;;4.20;;
2624;SDS011;1322;53.256;10.386;2023-12-14T12:01:15;8.27;;;4.67;;
2624;SDS011;1322;53.256;10.386;2023-12-14T12:03:42;6.33;;;4.27;;
2624;SDS011;1322;53.256;10.386;2023-12-14T12:06:09;8.37;;;4.50;;
2624;SDS011;1322;53.256;10.386;2023-12-14T12:08:48;4.20;;;3.80;;
2624;SDS011;1322;53.256;10.386;2023-12-14T12:11:21;6.50;;;4.47;;
2624;SDS011;1322;53.256;10.386;2023-12-14T12:13:51;4.67;;;3.90;;
2624;SDS011;1322;53.256;10.386;2023-12-14T12:16:18;6.57;;;4.83;;
2624;SDS011;1322;53.256;10.386;2023-12-14T12:18:44;8.27;;;3.73;;
2624;SDS011;1322;53.256;10.386;2023-12-14T12:21:10;7.67;;;3.97;;
2624;SDS011;1322;53.256;10.386;2023-12-14T12:23:36;8.27;;;4.13;;
2624;SDS011;1322;53.256;10.386;2023-12-14T12:26:02;4.43;;;3.77;;
2624;SDS011;1322;53.256;10.386;2023-12-14T12:28:28;7.37;;;4.30;;
2624;SDS011;1322;53.256;10.386;2023-12-14T12:30:55;6.43;;;4.30;;
2624;SDS011;1322;53.256;10.386;2023-12-14T12:33:21;6.73;;;4.13;;
2624;SDS011;1322;53.256;10.386;2023-12-14T12:35:47;5.17;;;4.13;;
2624;SDS011;1322;53.256;10.386;2023-12-14T12:38:12;8.40;;;4.27;;
2624;SDS011;1322;53.256;10.386;2023-12-14T12:40:39;4.90;;;3.50;;
2624;SDS011;1322;53.256;10.386;2023-12-14T12:43:04;4.20;;;2.67;;
2624;SDS011;1322;53.256;10.386;2023-12-14T12:45:30;3.50;;;2.83;;
2624;SDS011;1322;53.256;10.386;2023-12-14T12:47:57;4.67;;;3.50;;
2624;SDS011;1322;53.256;10.386;2023-12-14T12:50:22;3.90;;;2.87;;
2624;SDS011;1322;53.256;10.386;2023-12-14T12:52:48;5.77;;;4.10;;
2624;SDS011;1322;53.256;10.386;2023-12-14T12:55:14;6.63;;;3.50;;
2624;SDS011;1322;53.256;10.386;2023-12-14T12:57:40;4.63;;;4.13;;
2624;SDS011;1322;53.256;10.386;2023-12-14T13:00:08;4.97;;;3.87;;
2624;SDS011;1322;53.256;10.386;2023-12-14T13:02:41;3.33;;;2.80;;
2624;SDS011;1322;53.256;10.386;2023-12-14T13:05:07;5.87;;;3.57;;
2624;SDS011;1322;53.256;10.386;2023-12-14T13:07:34;7.90;;;3.60;;
2624;SDS011;1322;53.256;10.386;2023-12-14T13:10:00;5.40;;;4.90;;
2624;SDS011;1322;53.256;10.386;2023-12-14T13:12:25;5.33;;;4.80;;
2624;SDS011;1322;53.256;10.386;2023-12-14T13:14:51;8.67;;;4.53;;
2624;SDS011;1322;53.256;10.386;2023-12-14T13:17:17;8.17;;;4.10;;
2624;SDS011;1322;53.256;10.386;2023-12-14T13:19:43;5.73;;;4.20;;
2624;SDS011;1322;53.256;10.386;2023-12-14T13:22:09;6.07;;;4.23;;
2624;SDS011;1322;53.256;10.386;2023-12-14T13:24:38;5.90;;;4.93;;
2624;SDS011;1322;53.256;10.386;2023-12-14T13:27:04;7.90;;;4.80;;
2624;SDS011;1322;53.256;10.386;2023-12-14T13:29:30;6.47;;;4.40;;
2624;SDS011;1322;53.256;10.386;2023-12-14T13:31:57;6.50;;;4.20;;
2624;SDS011;1322;53.256;10.386;2023-12-14T13:34:24;13.23;;;4.70;;
2624;SDS011;1322;53.256;10.386;2023-12-14T13:36:50;5.63;;;3.17;;
2624;SDS011;1322;53.256;10.386;2023-12-14T13:39:18;5.60;;;3.00;;
2624;SDS011;1322;53.256;10.386;2023-12-14T13:41:44;5.00;;;3.20;;
2624;SDS011;1322;53.256;10.386;2023-12-14T13:44:10;4.30;;;2.87;;
2624;SDS011;1322;53.256;10.386;2023-12-14T13:46:35;5.73;;;2.40;;
2624;SDS011;1322;53.256;10.386;2023-12-14T13:49:01;2.90;;;2.30;;
2624;SDS011;1322;53.256;10.386;2023-12-14T13:51:27;4.83;;;1.93;;
2624;SDS011;1322;53.256;10.386;2023-12-14T13:53:53;3.00;;;2.20;;
2624;SDS011;1322;53.256;10.386;2023-12-14T13:56:19;3.40;;;2.27;;
2624;SDS011;1322;53.256;10.386;2023-12-14T13:58:44;3.53;;;2.70;;
2624;SDS011;1322;53.256;10.386;2023-12-14T14:01:10;3.10;;;2.50;;
2624;SDS011;1322;53.256;10.386;2023-12-14T14:03:36;3.57;;;2.80;;
2624;SDS011;1322;53.256;10.386;2023-12-14T14:06:05;5.70;;;3.20;;
2624;SDS011;1322;53.256;10.386;2023-12-14T14:08:32;4.17;;;2.57;;
2624;SDS011;1322;53.256;10.386;2023-12-14T14:10:58;6.80;;;3.97;;
2624;SDS011;1322;53.256;10.386;2023-12-14T14:13:24;2.90;;;2.40;;
2624;SDS011;1322;53.256;10.386;2023-12-14T14:15:50;5.40;;;3.83;;
2624;SDS011;1322;53.256;10.386;2023-12-14T14:18:15;4.30;;;3.33;;
2624;SDS011;1322;53.256;10.386;2023-12-14T14:20:41;7.10;;;2.97;;
2624;SDS011;1322;53.256;10.386;2023-12-14T14:23:07;4.23;;;3.10;;
2624;SDS011;1322;53.256;10.386;2023-12-14T14:25:33;3.37;;;2.70;;
2624;SDS011;1322;53.256;10.386;2023-12-14T14:27:59;3.83;;;2.80;;
2624;SDS011;1322;53.256;10.386;2023-12-14T14:30:24;23.70;;;16.40;;
2624;SDS011;1322;53.256;10.386;2023-12-14T14:32:51;102.30;;;49.03;;
2624;SDS011;1322;53.256;10.386;2023-12-14T14:35:16;105.00;;;41.90;;
2624;SDS011;1322;53.256;10.386;2023-12-14T14:37:42;74.97;;;29.30;;
2624;SDS011;1322;53.256;10.386;2023-12-14T14:40:10;9.10;;;5.27;;
2624;SDS011;1322;53.256;10.386;2023-12-14T14:42:38;13.93;;;7.17;;
2624;SDS011;1322;53.256;10.386;2023-12-14T14:45:05;51.00;;;23.70;;
2624;SDS011;1322;53.256;10.386;2023-12-14T14:47:31;28.70;;;13.77;;
2624;SDS011;1322;53.256;10.386;2023-12-14T14:49:57;19.17;;;11.80;;
2624;SDS011;1322;53.256;10.386;2023-12-14T14:52:28;14.60;;;9.70;;
2624;SDS011;1322;53.256;10.386;2023-12-14T14:54:53;8.50;;;5.43;;
2624;SDS011;1322;53.256;10.386;2023-12-14T14:57:19;6.50;;;4.93;;
2624;SDS011;1322;53.256;10.386;2023-12-14T14:59:45;15.10;;;6.90;;
2624;SDS011;1322;53.256;10.386;2023-12-14T15:02:10;11.10;;;5.90;;